Time;durP1;ratioP1;P1;durP2;ratioP2;P2;SDS_P1;SDS_P2;PMS_P1;PMS_P2;Temp;Humidity;BMP_temperature;BMP_pressure;BME280_temperature;BME280_humidity;BME280_pressure;Samples;Min_cycle;Max_cycle;Signal;HPM_P1;HPM_P2
2022/09/02 00:01:53;;;;;;;;;;;;;;;23.97;46.22;101325.22;5139422;27;19923;-38
2022/09/02 00:04:23;;;;;;;;;;;;;;;23.98;46.26;101320.50;5125059;27;20281;-38
2022/09/02 00:06:49;;;;;;;;;;;;;;;23.98;46.13;101323.28;5123524;27;20010;-38
2022/09/02 00:09:16;;;;;;;;;;;;;;;23.97;46.16;101322.44;5140445;27;20014;-39
2022/09/02 00:11:42;;;;;;;;;;;;;;;23.97;46.31;101313.28;5125367;27;20346;-38
2022/09/02 00:14:09;;;;;;;;;;;;;;;23.97;46.16;101319.66;5141225;27;20365;-38
2022/09/02 00:16:36;;;;;;;;;;;;;;;23.98;46.20;101303.81;5145835;27;19923;-38
2022/09/02 00:19:01;;;;;;;;;;;;;;;23.98;46.17;101317.72;5127610;27;19977;-38
2022/09/02 00:21:27;;;;;;;;;;;;;;;23.97;46.31;101319.66;5139448;27;19938;-38
2022/09/02 00:23:52;;;;;;;;;;;;;;;23.98;46.20;101312.16;5142573;27;20010;-38
2022/09/02 00:26:18;;;;;;;;;;;;;;;23.98;46.14;101312.97;5137021;27;19923;-38
2022/09/02 00:28:45;;;;;;;;;;;;;;;23.98;46.18;101301.03;5141381;27;20332;-38
2022/09/02 00:31:18;;;;;;;;;;;;;;;23.97;46.19;101302.16;5143655;27;19923;-38
2022/09/02 00:33:44;;;;;;;;;;;;;;;23.97;46.47;101302.16;5138058;27;20205;-38
2022/09/02 00:36:09;;;;;;;;;;;;;;;23.96;46.25;101293.00;5139219;27;19995;-38
2022/09/02 00:38:35;;;;;;;;;;;;;;;23.97;46.32;101296.59;5141701;27;19954;-38
2022/09/02 00:41:03;;;;;;;;;;;;;;;23.97;46.35;101296.59;5140975;27;19927;-38
2022/09/02 00:43:45;;;;;;;;;;;;;;;23.96;46.30;101295.78;5125696;27;20372;-38
2022/09/02 00:46:11;;;;;;;;;;;;;;;23.97;46.49;101291.03;5134077;27;19974;-38
2022/09/02 00:48:40;;;;;;;;;;;;;;;23.96;46.30;101297.69;5122241;27;20416;-38
2022/09/02 00:51:06;;;;;;;;;;;;;;;23.97;46.35;101293.81;5122063;27;19928;-38
2022/09/02 00:53:32;;;;;;;;;;;;;;;23.95;46.43;101285.75;5141708;27;19923;-39
2022/09/02 00:55:58;;;;;;;;;;;;;;;23.96;46.33;101289.34;5138762;27;20351;-39
2022/09/02 00:58:25;;;;;;;;;;;;;;;23.96;46.29;101289.34;5123608;27;19979;-38
2022/09/02 01:00:55;;;;;;;;;;;;;;;23.96;46.29;101292.13;5144018;27;20019;-38
2022/09/02 01:03:21;;;;;;;;;;;;;;;23.96;46.42;101290.22;5141002;27;19935;-38
2022/09/02 01:05:48;;;;;;;;;;;;;;;23.97;46.29;101288.25;5136620;27;19932;-38
2022/09/02 01:08:15;;;;;;;;;;;;;;;23.96;46.30;101289.34;5127274;27;20045;-39
2022/09/02 01:10:41;;;;;;;;;;;;;;;23.96;46.43;101287.44;5139726;27;19970;-38
2022/09/02 01:13:11;;;;;;;;;;;;;;;23.96;46.31;101287.44;5137673;27;20029;-38
2022/09/02 01:15:38;;;;;;;;;;;;;;;23.96;46.37;101287.44;5119908;27;19984;-38
2022/09/02 01:18:05;;;;;;;;;;;;;;;23.95;46.57;101282.16;5124975;27;19930;-38
2022/09/02 01:20:31;;;;;;;;;;;;;;;23.96;46.43;101281.00;5140063;27;20026;-38
2022/09/02 01:22:57;;;;;;;;;;;;;;;23.96;46.30;101278.22;5121381;27;19935;-38
2022/09/02 01:25:24;;;;;;;;;;;;;;;23.95;46.41;101282.97;5139372;27;19931;-38
2022/09/02 01:27:49;;;;;;;;;;;;;;;23.95;46.32;101285.75;5138590;27;20018;-38
2022/09/02 01:30:18;;;;;;;;;;;;;;;23.96;46.30;101278.22;5142684;27;19923;-38
2022/09/02 01:32:43;;;;;;;;;;;;;;;23.95;46.51;101285.75;5123756;27;19923;-38
2022/09/02 01:35:09;;;;;;;;;;;;;;;23.94;46.50;101278.53;5141995;27;20243;-38
2022/09/02 01:37:37;;;;;;;;;;;;;;;23.94;46.29;101278.53;5139179;27;20018;-38
2022/09/02 01:40:03;;;;;;;;;;;;;;;23.96;46.34;101275.44;5140448;27;19971;-38
2022/09/02 01:42:29;;;;;;;;;;;;;;;23.95;46.40;101266.28;5118835;27;19923;-38
2022/09/02 01:44:54;;;;;;;;;;;;;;;23.95;46.50;101265.44;5121341;27;20007;-38
2022/09/02 01:47:21;;;;;;;;;;;;;;;23.94;46.42;101263.81;5144592;27;19931;-38
2022/09/02 01:49:47;;;;;;;;;;;;;;;23.94;46.42;101269.38;5124551;27;20005;-38
2022/09/02 01:52:13;;;;;;;;;;;;;;;23.94;46.35;101266.59;5139887;27;19928;-38
2022/09/02 01:54:39;;;;;;;;;;;;;;;23.95;46.41;101268.22;5122133;27;20037;-38
2022/09/02 01:57:04;;;;;;;;;;;;;;;23.95;46.31;101269.06;5122050;27;19931;-38
2022/09/02 01:59:30;;;;;;;;;;;;;;;23.93;46.61;101265.78;5126027;27;19923;-38
2022/09/02 02:01:55;;;;;;;;;;;;;;;23.94;46.36;101261.03;5141551;27;19923;-38
2022/09/02 02:04:23;;;;;;;;;;;;;;;23.94;47.12;101270.19;5137144;27;19923;-38
2022/09/02 02:06:50;;;;;;;;;;;;;;;23.94;46.82;101267.41;5136364;27;19946;-38
2022/09/02 02:09:18;;;;;;;;;;;;;;;23.94;46.40;101263.81;5140420;27;19923;-38
2022/09/02 02:11:44;;;;;;;;;;;;;;;23.94;46.55;101272.16;5122614;28;19924;-38
2022/09/02 02:14:10;;;;;;;;;;;;;;;23.93;46.81;101265.78;5125108;27;21189;-38
2022/09/02 02:16:35;;;;;;;;;;;;;;;23.94;47.05;101266.59;5140650;27;19935;-38
2022/09/02 02:19:01;;;;;;;;;;;;;;;23.92;47.31;101264.13;5142831;27;19924;-38
2022/09/02 02:21:26;;;;;;;;;;;;;;;23.93;47.38;101274.13;5126073;27;19934;-38
2022/09/02 02:23:52;;;;;;;;;;;;;;;23.93;46.49;101271.34;5140124;27;20349;-38
2022/09/02 02:26:18;;;;;;;;;;;;;;;23.92;46.53;101261.34;5146207;27;19924;-38
2022/09/02 02:28:45;;;;;;;;;;;;;;;23.93;46.54;101267.72;5122394;27;19923;-38
2022/09/02 02:31:11;;;;;;;;;;;;;;;23.93;46.45;101267.72;5143053;27;20349;-38
2022/09/02 02:33:37;;;;;;;;;;;;;;;23.93;46.49;101270.50;5142156;27;19931;-38
2022/09/02 02:36:03;;;;;;;;;;;;;;;23.92;46.85;101261.34;5145952;27;20288;-38
2022/09/02 02:38:29;;;;;;;;;;;;;;;23.93;46.50;101262.16;5142233;27;20030;-38
2022/09/02 02:40:56;;;;;;;;;;;;;;;23.92;46.43;101266.91;5144765;27;20010;-38
2022/09/02 02:43:22;;;;;;;;;;;;;;;23.92;46.57;101264.13;5124422;27;20460;-38
2022/09/02 02:45:48;;;;;;;;;;;;;;;23.93;46.79;101264.94;5138166;27;19931;-38
2022/09/02 02:48:14;;;;;;;;;;;;;;;23.92;46.41;101260.50;5140257;27;20402;-38
2022/09/02 02:50:40;;;;;;;;;;;;;;;23.93;46.82;101267.72;5145208;27;19924;-38
2022/09/02 02:53:06;;;;;;;;;;;;;;;23.92;46.39;101257.72;5142983;27;20015;-38
2022/09/02 02:55:31;;;;;;;;;;;;;;;23.92;46.54;101264.13;5146870;27;19931;-38
2022/09/02 02:57:57;;;;;;;;;;;;;;;23.92;46.81;101254.94;5145417;27;20357;-38
2022/09/02 03:00:24;;;;;;;;;;;;;;;23.93;46.44;101262.16;5143942;27;19927;-38
2022/09/02 03:02:50;;;;;;;;;;;;;;;23.92;46.77;101255.78;5127446;27;19988;-38
2022/09/02 03:05:16;;;;;;;;;;;;;;;23.92;46.58;101258.56;5125583;27;20361;-38
2022/09/02 03:07:42;;;;;;;;;;;;;;;23.92;46.57;101253.00;5146700;27;19923;-38
2022/09/02 03:10:11;;;;;;;;;;;;;;;23.92;46.87;101260.50;5144836;27;19950;-38
2022/09/02 03:12:38;;;;;;;;;;;;;;;23.91;46.68;101254.09;5124462;27;20210;-38
2022/09/02 03:15:04;;;;;;;;;;;;;;;23.92;46.51;101257.72;5136419;27;19969;-38
2022/09/02 03:17:30;;;;;;;;;;;;;;;23.91;46.83;101256.06;5133410;27;19974;-38
2022/09/02 03:19:58;;;;;;;;;;;;;;;23.91;46.50;101256.06;5141228;27;19927;-38
2022/09/02 03:22:24;;;;;;;;;;;;;;;23.91;46.45;101248.53;5146774;27;19958;-40
2022/09/02 03:24:50;;;;;;;;;;;;;;;23.92;46.53;101252.16;5142717;27;20437;-38
2022/09/02 03:27:15;;;;;;;;;;;;;;;23.91;46.91;101254.09;5140056;27;19927;-38
2022/09/02 03:29:41;;;;;;;;;;;;;;;23.92;46.50;101254.94;5144756;27;20326;-38
2022/09/02 03:32:07;;;;;;;;;;;;;;;23.92;46.49;101258.56;5144867;27;19930;-38
2022/09/02 03:34:33;;;;;;;;;;;;;;;23.91;46.74;101256.88;5139144;27;19944;-38
2022/09/02 03:36:58;;;;;;;;;;;;;;;23.91;46.67;101253.28;5142987;27;20364;-38
2022/09/02 03:39:24;;;;;;;;;;;;;;;23.92;46.55;101252.16;5142713;27;19924;-38
2022/09/02 03:41:50;;;;;;;;;;;;;;;23.91;46.44;101247.72;5141703;27;19942;-38
2022/09/02 03:44:15;;;;;;;;;;;;;;;23.91;46.76;101248.53;5142196;27;20281;-38
2022/09/02 03:46:41;;;;;;;;;;;;;;;23.91;46.47;101250.50;5144479;27;19931;-38
2022/09/02 03:49:06;;;;;;;;;;;;;;;23.91;46.49;101248.53;5141636;27;20277;-38
2022/09/02 03:51:32;;;;;;;;;;;;;;;23.90;46.52;101243.28;5124555;27;19935;-38
2022/09/02 03:53:57;;;;;;;;;;;;;;;23.91;46.65;101247.72;5141854;27;20327;-38
2022/09/02 03:56:24;;;;;;;;;;;;;;;23.91;46.54;101242.16;5140865;27;19928;-39
2022/09/02 03:58:50;;;;;;;;;;;;;;;23.92;46.43;101241.03;5146832;27;19963;-38
2022/09/02 04:01:17;;;;;;;;;;;;;;;23.91;46.51;101247.72;5142462;27;19966;-38
2022/09/02 04:03:43;;;;;;;;;;;;;;;23.90;46.80;101246.91;5139897;27;19923;-38
2022/09/02 04:06:10;;;;;;;;;;;;;;;23.90;46.46;101241.34;5143305;27;19930;-38
2022/09/02 04:08:36;;;;;;;;;;;;;;;23.90;46.84;101234.94;5124030;27;20022;-38
2022/09/02 04:11:09;;;;;;;;;;;;;;;23.91;46.46;101242.16;5139943;27;19924;-38
2022/09/02 04:13:35;;;;;;;;;;;;;;;23.91;46.57;101239.38;5124871;27;19923;-39
2022/09/02 04:16:04;;;;;;;;;;;;;;;23.90;46.86;101240.50;5121768;27;19967;-38
2022/09/02 04:18:35;;;;;;;;;;;;;;;23.91;46.66;101239.38;5121576;27;20013;-38
2022/09/02 04:21:01;;;;;;;;;;;;;;;23.91;46.94;101239.38;5125875;27;19930;-38
2022/09/02 04:23:27;;;;;;;;;;;;;;;23.90;47.41;101241.34;5141584;27;19923;-38
2022/09/02 04:25:53;;;;;;;;;;;;;;;23.91;46.43;101244.94;5143602;27;20014;-38
2022/09/02 04:28:18;;;;;;;;;;;;;;;23.91;46.44;101239.38;5143758;27;19954;-38
2022/09/02 04:30:44;;;;;;;;;;;;;;;23.90;46.71;101243.28;5141297;27;19938;-38
2022/09/02 04:33:09;;;;;;;;;;;;;;;23.90;46.62;101240.50;5138883;27;19923;-38
2022/09/02 04:35:38;;;;;;;;;;;;;;;23.89;46.58;101236.91;5125446;27;20289;-38
2022/09/02 04:38:04;;;;;;;;;;;;;;;23.91;46.49;101236.59;5138660;27;19959;-38
2022/09/02 04:40:30;;;;;;;;;;;;;;;23.89;46.86;101238.88;5138460;27;19923;-38
2022/09/02 04:42:55;;;;;;;;;;;;;;;23.89;46.58;101236.91;5142469;27;19929;-38
2022/09/02 04:45:21;;;;;;;;;;;;;;;23.90;47.50;101227.44;5139931;27;19957;-38
2022/09/02 04:47:51;;;;;;;;;;;;;;;23.90;47.47;101237.72;5139723;27;19924;-38
2022/09/02 04:50:17;;;;;;;;;;;;;;;23.88;47.17;101240.84;5141528;27;19927;-38
2022/09/02 04:52:42;;;;;;;;;;;;;;;23.89;47.03;101231.34;5140900;27;19938;-38
2022/09/02 04:55:08;;;;;;;;;;;;;;;23.88;47.15;101232.50;5139013;27;19930;-38
2022/09/02 04:57:34;;;;;;;;;;;;;;;23.89;45.74;101230.53;5125381;27;20379;-38
2022/09/02 05:00:02;;;;;;;;;;;;;;;23.88;46.05;101234.44;5138478;27;20022;-38
2022/09/02 05:02:28;;;;;;;;;;;;;;;23.87;44.93;101235.56;5146730;27;20014;-38
2022/09/02 05:04:53;;;;;;;;;;;;;;;23.88;43.86;101234.44;5139906;27;19923;-38
2022/09/02 05:07:19;;;;;;;;;;;;;;;23.87;43.76;101230.81;5137739;27;20010;-38
2022/09/02 05:09:45;;;;;;;;;;;;;;;23.88;44.19;101226.94;5139839;27;19923;-39
2022/09/02 05:12:11;;;;;;;;;;;;;;;23.88;43.82;101228.88;5138822;27;19931;-38
2022/09/02 05:14:37;;;;;;;;;;;;;;;23.89;44.72;101230.53;5139980;27;20295;-38
2022/09/02 05:17:03;;;;;;;;;;;;;;;23.90;44.25;101229.38;5132199;27;19928;-38
2022/09/02 05:19:33;;;;;;;;;;;;;;;23.89;44.84;101231.34;5137858;27;19927;-38
2022/09/02 05:22:00;;;;;;;;;;;;;;;23.90;45.17;101235.78;5144200;27;19930;-38
2022/09/02 05:24:27;;;;;;;;;;;;;;;23.88;43.85;101242.78;5136503;27;19975;-38
2022/09/02 05:26:52;;;;;;;;;;;;;;;23.87;43.54;101230.81;5135945;27;19974;-38
2022/09/02 05:29:19;;;;;;;;;;;;;;;23.87;43.35;101227.22;5138658;27;20050;-39
2022/09/02 05:31:45;;;;;;;;;;;;;;;23.86;42.90;101231.94;5131975;27;20006;-38
2022/09/02 05:34:10;;;;;;;;;;;;;;;23.87;42.54;101232.78;5117765;27;21714;-38
2022/09/02 05:36:36;;;;;;;;;;;;;;;23.86;42.36;101226.38;5137455;27;19931;-38
2022/09/02 05:39:02;;;;;;;;;;;;;;;23.87;42.96;101232.78;5136247;27;19927;-38
2022/09/02 05:41:28;;;;;;;;;;;;;;;23.87;42.50;101232.78;5115233;27;20010;-38
2022/09/02 05:43:54;;;;;;;;;;;;;;;23.86;42.26;101233.91;5136411;27;19967;-39
2022/09/02 05:46:22;;;;;;;;;;;;;;;23.85;41.80;101226.72;5119233;27;20076;-39
2022/09/02 05:49:20;;;;;;;;;;;;;;;23.85;42.66;101229.47;5123566;27;19930;-38
2022/09/02 05:51:37;;;;;;;;;;;;;;;23.87;42.96;101230.81;5125728;27;20025;-40
2022/09/02 05:54:03;;;;;;;;;;;;;;;23.87;43.49;101230.81;5120274;27;20006;-38
2022/09/02 05:56:28;;;;;;;;;;;;;;;23.38;38.63;101225.78;5115187;27;19953;-50
2022/09/02 05:58:54;;;;;;;;;;;;;;;23.31;39.03;101231.72;5134018;27;19976;-42
2022/09/02 06:01:20;;;;;;;;;;;;;;;23.26;38.91;101237.34;5118243;27;20004;-37
2022/09/02 06:03:46;;;;;;;;;;;;;;;23.56;38.89;101224.09;5117286;27;20298;-38
2022/09/02 06:06:12;;;;;;;;;;;;;;;23.69;39.08;101226.13;5130916;27;19930;-38
2022/09/02 06:08:38;;;;;;;;;;;;;;;23.74;39.54;101223.25;5112956;27;20281;-38
2022/09/02 06:11:03;;;;;;;;;;;;;;;23.78;39.83;101227.09;5135961;27;19931;-38
2022/09/02 06:13:29;;;;;;;;;;;;;;;23.79;39.47;101223.16;5121984;27;19991;-39
2022/09/02 06:15:56;;;;;;;;;;;;;;;23.78;40.03;101224.31;5116413;27;19998;-38
2022/09/02 06:18:22;;;;;;;;;;;;;;;23.78;39.74;101218.75;5136051;27;19968;-39
2022/09/02 06:20:49;;;;;;;;;;;;;;;23.81;39.89;101222.88;5134051;27;20353;-38
2022/09/02 06:23:14;;;;;;;;;;;;;;;23.81;40.13;101215.34;5115310;27;19927;-38
2022/09/02 06:25:41;;;;;;;;;;;;;;;23.82;39.93;101218.97;5130734;27;19976;-38
2022/09/02 06:28:07;;;;;;;;;;;;;;;23.81;40.10;101218.13;5129483;27;21866;-39
2022/09/02 06:30:33;;;;;;;;;;;;;;;23.82;40.31;101228.13;5112875;27;19939;-38
2022/09/02 06:32:58;;;;;;;;;;;;;;;23.83;39.97;101218.66;5134821;27;20605;-39
2022/09/02 06:35:24;;;;;;;;;;;;;;;23.82;39.85;101225.34;5129182;27;19931;-38
2022/09/02 06:37:50;;;;;;;;;;;;;;;23.84;39.88;101217.53;5116034;27;20247;-38
2022/09/02 06:40:17;;;;;;;;;;;;;;;23.83;40.32;101221.44;5135628;27;19923;-38
2022/09/02 06:42:42;;;;;;;;;;;;;;;23.66;36.53;101212.84;5136981;27;19931;-39
2022/09/02 06:45:08;;;;;;;;;;;;;;;23.17;36.95;101226.09;5129464;27;19938;-39
2022/09/02 06:47:33;;;;;;;;;;;;;;;23.53;37.21;101222.75;5122937;27;19931;-39
2022/09/02 06:49:59;;;;;;;;;;;;;;;23.69;37.60;101221.41;5130503;27;19981;-40
2022/09/02 06:52:25;;;;;;;;;;;;;;;23.76;38.52;101219.06;5134261;27;19927;-39
2022/09/02 06:54:50;;;;;;;;;;;;;;;23.28;36.77;101218.44;5129074;27;19931;-40
2022/09/02 06:57:16;;;;;;;;;;;;;;;23.47;38.29;101215.63;5127230;27;20370;-40
2022/09/02 06:59:42;;;;;;;;;;;;;;;23.68;38.20;101216.16;5122991;27;20184;-39
2022/09/02 07:02:07;;;;;;;;;;;;;;;23.75;38.22;101213.81;5124192;27;19973;-41
2022/09/02 07:07:22;;;;;;;;;;;;;;;23.81;38.88;101220.91;5113155;27;20052;-38
2022/09/02 07:09:48;;;;;;;;;;;;;;;23.83;39.12;101217.81;5127820;27;20390;-38
2022/09/02 07:12:15;;;;;;;;;;;;;;;23.84;39.16;101214.75;5130204;27;19977;-38
2022/09/02 07:14:41;;;;;;;;;;;;;;;23.85;39.59;101207.22;5134996;27;20054;-39
2022/09/02 07:17:08;;;;;;;;;;;;;;;23.86;39.65;101214.44;5129995;27;20022;-38
2022/09/02 07:19:33;;;;;;;;;;;;;;;23.87;39.92;101210.53;5133627;27;19943;-39
2022/09/02 07:21:59;;;;;;;;;;;;;;;23.88;40.45;101212.19;5128909;27;19935;-40
2022/09/02 07:24:24;;;;;;;;;;;;;;;23.88;39.92;101212.19;5134417;27;20365;-38
2022/09/02 07:26:50;;;;;;;;;;;;;;;23.85;39.26;101208.06;5115213;27;20450;-38
2022/09/02 07:29:21;;;;;;;;;;;;;;;23.87;39.31;101213.31;5118013;27;19961;-37
2022/09/02 07:31:46;;;;;;;;;;;;;;;23.88;40.01;101201.06;5138597;27;19927;-39
2022/09/02 07:34:13;;;;;;;;;;;;;;;23.91;40.58;101211.56;5131006;27;20077;-38
2022/09/02 07:36:39;;;;;;;;;;;;;;;23.89;40.35;101209.09;5132134;27;20037;-38
2022/09/02 07:39:05;;;;;;;;;;;;;;;23.87;39.87;101194.66;5128247;27;19923;-38
2022/09/02 07:41:31;;;;;;;;;;;;;;;23.89;40.21;101199.94;5132996;27;19927;-38
2022/09/02 07:43:57;;;;;;;;;;;;;;;23.87;40.36;101199.41;5113088;27;20014;-39
2022/09/02 07:46:25;;;;;;;;;;;;;;;23.90;39.88;101198.78;5132058;27;20363;-38
2022/09/02 07:48:50;;;;;;;;;;;;;;;23.89;39.88;101197.97;5129939;27;19931;-38
2022/09/02 07:51:17;;;;;;;;;;;;;;;23.72;39.32;101208.84;5132724;27;19931;-38
2022/09/02 07:53:43;;;;;;;;;;;;;;;23.87;39.15;101204.97;5115287;27;20025;-39
2022/09/02 07:56:08;;;;;;;;;;;;;;;23.92;39.58;101204.84;5133353;27;20038;-39
2022/09/02 07:58:34;;;;;;;;;;;;;;;23.90;39.31;101194.06;5135777;27;20370;-39
2022/09/02 08:00:59;;;;;;;;;;;;;;;23.91;39.86;101206.81;5111873;27;19935;-43
2022/09/02 08:03:25;;;;;;;;;;;;;;;23.93;40.20;101201.78;5108400;27;19931;-38
2022/09/02 08:05:51;;;;;;;;;;;;;;;23.93;40.54;101207.34;5127227;27;19934;-41
2022/09/02 08:08:19;;;;;;;;;;;;;;;23.95;40.91;101207.84;5119257;27;19932;-41
2022/09/02 08:10:45;;;;;;;;;;;;;;;23.95;40.93;101202.28;5121821;27;20026;-42
2022/09/02 08:13:11;;;;;;;;;;;;;;;23.95;40.82;101196.72;5134413;27;20013;-40
2022/09/02 08:15:37;;;;;;;;;;;;;;;23.94;40.83;101189.53;5129391;27;19961;-40
2022/09/02 08:18:03;;;;;;;;;;;;;;;23.94;40.67;101194.28;5129139;27;20539;-40
2022/09/02 08:20:30;;;;;;;;;;;;;;;23.94;40.78;101195.09;5128201;27;19979;-42
2022/09/02 08:22:56;;;;;;;;;;;;;;;23.95;40.90;101196.72;5111280;27;19931;-42
2022/09/02 08:25:37;;;;;;;;;;;;;;;23.96;40.60;101189.22;5133161;27;20023;-41
2022/09/02 08:28:02;;;;;;;;;;;;;;;23.95;40.71;101193.94;5123526;27;19927;-42
2022/09/02 08:30:28;;;;;;;;;;;;;;;23.95;40.70;101190.34;5108855;27;19979;-41
2022/09/02 08:32:53;;;;;;;;;;;;;;;23.96;41.08;101180.88;5125942;27;20410;-42
2022/09/02 08:35:19;;;;;;;;;;;;;;;23.89;39.44;101181.28;5119631;27;21019;-42
2022/09/02 08:37:45;;;;;;;;;;;;;;;23.99;40.97;101194.16;5123926;27;19927;-43
2022/09/02 08:40:18;;;;;;;;;;;;;;;24.00;40.94;101185.50;5115808;27;19969;-41
2022/09/02 08:42:46;;;;;;;;;;;;;;;23.99;41.03;101189.41;5122761;27;19927;-40
2022/09/02 08:45:36;;;;;;;;;;;;;;;24.00;40.65;101188.28;5125215;27;19923;-40
2022/09/02 08:48:14;;;;;;;;;;;;;;;23.99;40.65;101178.28;5109805;27;19927;-41
2022/09/02 08:50:41;;;;;;;;;;;;;;;23.99;40.71;101178.28;5127816;27;19942;-42
2022/09/02 08:53:10;;;;;;;;;;;;;;;24.01;41.23;101175.22;5123903;27;19929;-42
2022/09/02 08:55:38;;;;;;;;;;;;;;;24.01;41.07;101175.22;5124891;27;20700;-42
2022/09/02 08:58:04;;;;;;;;;;;;;;;24.00;41.03;101179.94;5107217;27;20063;-41
2022/09/02 09:00:36;;;;;;;;;;;;;;;24.01;41.31;101184.41;5128543;27;20377;-42
2022/09/02 09:03:14;;;;;;;;;;;;;;;24.02;41.45;101174.91;5128273;27;20030;-40
2022/09/02 09:05:46;;;;;;;;;;;;;;;24.02;41.25;101180.47;5125622;27;19931;-41
2022/09/02 09:08:15;;;;;;;;;;;;;;;24.03;41.26;101184.91;5114925;27;19923;-41
2022/09/02 09:11:03;;;;;;;;;;;;;;;24.03;41.27;101179.34;5134514;27;19989;-42
2022/09/02 09:13:40;;;;;;;;;;;;;;;24.00;40.36;101174.38;5134069;27;20009;-41
2022/09/02 09:16:09;;;;;;;;;;;;;;;24.02;41.17;101172.13;5132981;27;19931;-43
2022/09/02 09:18:37;;;;;;;;;;;;;;;24.03;40.90;101172.94;5132209;27;20405;-40
2022/09/02 09:21:03;;;;;;;;;;;;;;;24.03;41.29;101162.63;5113892;27;20314;-44
2022/09/02 09:23:32;;;;;;;;;;;;;;;24.06;41.48;101165.97;5136465;27;19943;-43
2022/09/02 09:26:08;;;;;;;;;;;;;;;24.06;43.04;101155.66;5113900;27;19930;-41
2022/09/02 09:28:42;;;;;;;;;;;;;;;24.06;41.76;101152.03;5125112;27;21630;-41
2022/09/02 09:31:09;;;;;;;;;;;;;;;24.06;41.59;101154.81;5128188;27;20249;-41
2022/09/02 09:33:34;;;;;;;;;;;;;;;24.00;38.62;101154.06;5129830;27;19923;-40
2022/09/02 09:36:02;;;;;;;;;;;;;;;24.00;39.63;101148.50;5125236;27;19980;-41
2022/09/02 09:38:29;;;;;;;;;;;;;;;24.03;39.86;101148.72;5119968;27;20494;-41
2022/09/02 09:41:14;;;;;;;;;;;;;;;24.07;40.37;101142.56;5100957;27;19956;-42
2022/09/02 09:43:40;;;;;;;;;;;;;;;24.08;41.14;101145.03;5111442;27;19938;-41
2022/09/02 09:46:19;;;;;;;;;;;;;;;24.09;41.52;101132.75;5127803;27;19932;-41
2022/09/02 09:48:47;;;;;;;;;;;;;;;24.09;41.44;101134.72;5129550;27;19931;-40
2022/09/02 09:51:14;;;;;;;;;;;;;;;24.09;43.14;101131.94;5112704;27;21417;-40
2022/09/02 09:53:40;;;;;;;;;;;;;;;24.08;41.86;101125.53;5113029;27;20063;-40
2022/09/02 09:56:19;;;;;;;;;;;;;;;24.09;41.63;101135.53;5130380;27;20444;-42
2022/09/02 09:58:45;;;;;;;;;;;;;;;24.10;42.13;101128.03;5127614;27;20022;-41
2022/09/02 10:01:13;;;;;;;;;;;;;;;24.10;42.82;101123.28;5110128;27;19931;-43
2022/09/02 10:03:40;;;;;;;;;;;;;;;24.11;41.71;101133.28;5127007;27;20030;-41
2022/09/02 10:06:26;;;;;;;;;;;;;;;24.12;41.59;101122.97;5109014;27;20050;-41
2022/09/02 10:08:53;;;;;;;;;;;;;;;24.11;43.11;101130.50;5112231;27;19931;-42
2022/09/02 10:11:20;;;;;;;;;;;;;;;24.12;41.92;101134.09;5115726;27;19954;-40
2022/09/02 10:13:46;;;;;;;;;;;;;;;24.12;43.34;101132.13;5130813;27;20022;-41
2022/09/02 10:16:15;;;;;;;;;;;;;;;24.13;41.93;101122.66;5129354;27;19931;-43
2022/09/02 10:19:00;;;;;;;;;;;;;;;24.14;41.30;101131.84;5111095;27;19927;-41
2022/09/02 10:21:30;;;;;;;;;;;;;;;24.14;41.21;101127.09;5113239;27;20398;-41
2022/09/02 10:24:16;;;;;;;;;;;;;;;24.14;41.77;101131.84;5128717;27;20033;-41
2022/09/02 10:26:45;;;;;;;;;;;;;;;24.13;40.25;101111.53;5112334;27;20073;-41
2022/09/02 10:29:30;;;;;;;;;;;;;;;24.15;39.77;101114.00;5125393;27;20030;-41
2022/09/02 10:34:36;;;;;;;;;;;;;;;24.16;39.88;101098.97;5151762;27;20018;-39
2022/09/02 10:37:09;;;;;;;;;;;;;;;24.17;40.24;101109.78;5132888;27;19932;-38
2022/09/02 10:39:38;;;;;;;;;;;;;;;24.18;40.18;101108.66;5133088;27;20017;-41
2022/09/02 10:42:09;;;;;;;;;;;;;;;24.17;39.48;101104.19;5132063;27;20772;-40
2022/09/02 10:44:40;;;;;;;;;;;;;;;24.17;40.06;101095.84;5106138;27;20099;-43
2022/09/02 10:47:09;;;;;;;;;;;;;;;24.17;40.10;101093.06;5127535;27;20361;-43
2022/09/02 10:49:42;;;;;;;;;;;;;;;24.18;40.34;101100.31;5125058;27;20468;-41
2022/09/02 10:52:13;;;;;;;;;;;;;;;24.18;40.61;101093.88;5128237;27;20595;-42
2022/09/02 10:54:49;;;;;;;;;;;;;;;24.17;40.14;101090.28;5137255;27;20463;-43
2022/09/02 10:57:18;;;;;;;;;;;;;;;24.18;40.30;101089.19;5132025;27;20287;-42
2022/09/02 10:59:47;;;;;;;;;;;;;;;24.18;41.09;101080.81;5130651;27;20026;-41
2022/09/02 11:02:20;;;;;;;;;;;;;;;24.18;43.15;101085.53;5134555;27;20014;-45
2022/09/02 11:04:47;;;;;;;;;;;;;;;24.20;40.22;101086.91;5130615;27;20061;-41
2022/09/02 11:07:16;;;;;;;;;;;;;;;24.20;40.10;101077.72;5115833;27;20053;-41
2022/09/02 11:09:45;;;;;;;;;;;;;;;24.20;40.47;101077.72;5110565;27;20445;-40
2022/09/02 11:12:30;;;;;;;;;;;;;;;24.19;41.26;101076.91;5130907;27;20014;-41
2022/09/02 11:15:16;;;;;;;;;;;;;;;24.21;41.87;101080.19;5131347;27;20026;-41
2022/09/02 11:17:44;;;;;;;;;;;;;;;24.21;40.33;101076.59;5113003;27;20018;-41
2022/09/02 11:20:13;;;;;;;;;;;;;;;24.21;40.43;101071.84;5134327;27;20010;-41
2022/09/02 11:22:56;;;;;;;;;;;;;;;24.19;39.05;101060.22;5110923;27;20022;-41
2022/09/02 11:25:24;;;;;;;;;;;;;;;24.20;39.34;101061.84;5118977;27;19924;-41
2022/09/02 11:28:03;;;;;;;;;;;;;;;24.20;39.53;101066.59;5117251;27;20062;-42
2022/09/02 11:30:36;;;;;;;;;;;;;;;24.19;39.20;101063.00;5134830;27;20078;-41
2022/09/02 11:33:09;;;;;;;;;;;;;;;24.20;39.62;101055.47;5128561;27;19931;-41
2022/09/02 11:35:37;;;;;;;;;;;;;;;24.20;40.40;101064.63;5126939;27;20480;-45
2022/09/02 11:38:04;;;;;;;;;;;;;;;24.21;40.48;101057.09;5104023;27;20018;-44
2022/09/02 11:40:33;;;;;;;;;;;;;;;24.20;42.13;101049.91;5114669;27;20071;-43
2022/09/02 11:43:11;;;;;;;;;;;;;;;24.21;40.20;101043.19;5125426;27;19931;-41
2022/09/02 11:45:39;;;;;;;;;;;;;;;24.21;39.73;101049.56;5094747;28;20014;-41
2022/09/02 11:48:07;;;;;;;;;;;;;;;24.21;40.60;101049.56;5114507;28;20585;-42
2022/09/02 11:50:38;;;;;;;;;;;;;;;24.23;40.12;101046.50;5125663;27;19931;-42
2022/09/02 11:53:22;;;;;;;;;;;;;;;24.22;39.95;101039.25;5117732;27;19924;-41
2022/09/02 11:55:55;;;;;;;;;;;;;;;24.22;41.64;101039.25;5102053;28;19924;-41
2022/09/02 11:58:29;;;;;;;;;;;;;;;24.21;39.89;101037.63;5117925;27;19930;-40
2022/09/02 12:00:58;;;;;;;;;;;;;;;24.23;39.97;101035.38;5103459;28;19954;-43
2022/09/02 12:03:25;;;;;;;;;;;;;;;24.20;40.15;101030.41;5121657;27;19931;-42
2022/09/02 12:06:12;;;;;;;;;;;;;;;24.19;43.16;101026.81;5093489;28;19975;-43
2022/09/02 12:11:36;;;;;;;;;;;;;;;24.20;41.88;101034.03;5161593;27;20029;-39
2022/09/02 12:14:02;;;;;;;;;;;;;;;24.19;39.28;101018.47;5145124;27;20750;-39
2022/09/02 12:19:14;;;;;;;;;;;;;;;24.19;41.16;101012.91;5161179;27;19938;-38
2022/09/02 12:22:00;;;;;;;;;;;;;;;24.18;43.40;101013.19;5159797;27;20005;-38
2022/09/02 12:24:25;;;;;;;;;;;;;;;24.19;40.21;101009.31;5146659;27;20014;-43
2022/09/02 12:29:29;;;;;;;;;;;;;;;24.19;39.85;101004.56;5157346;27;19926;-39
2022/09/02 12:31:55;;;;;;;;;;;;;;;24.19;39.77;101006.50;5170150;27;20060;-39
2022/09/02 12:34:23;;;;;;;;;;;;;;;24.18;40.08;101000.13;5168989;27;20369;-39
2022/09/02 12:36:56;;;;;;;;;;;;;;;24.20;41.00;101006.19;5166636;27;20180;-38
2022/09/02 12:42:05;;;;;;;;;;;;;;;24.18;43.46;101005.69;5178723;27;20011;-40
2022/09/02 12:44:35;;;;;;;;;;;;;;;24.17;42.95;100997.66;5163767;27;19975;-38
2022/09/02 12:47:03;;;;;;;;;;;;;;;24.16;42.88;100991.25;5162691;27;19931;-38
2022/09/02 12:49:35;;;;;;;;;;;;;;;24.16;42.66;100996.00;5147684;27;20055;-38
2022/09/02 12:52:02;;;;;;;;;;;;;;;24.19;40.48;100987.03;5148493;27;19926;-39
2022/09/02 12:54:40;;;;;;;;;;;;;;;24.16;42.42;100991.25;5150015;27;19964;-39
2022/09/02 12:57:05;;;;;;;;;;;;;;;24.16;43.03;100991.25;5164407;27;19984;-39